Terminal Aerodrome Forecast
Issued by NWS Wakefield, VA

Home | Current Version | Previous Version | Text Only | Print | Product List | Glossary On
Versions: 1 2 3 4 5 6 7 8 9 10 11 12 13 14 15 16 17 18 19 20 21 22 23 24
000
FTUS41 KAKQ 042300
TAFRIC
TAF
KRIC 042340Z 0500/0524 02010KT P6SM BKN035 OVC050
      TEMPO 0500/0502 -RA OVC025
     FM050400 02011KT 5SM -RA BR OVC015
     FM050900 02014G22KT 3SM -RA BR OVC008
     FM051200 02015G25KT 1SM -RAPL BR OVC007
     FM051800 02015G24KT 1/2SM SN FG OVC005=

USA.gov is the U.S. government's official web portal to all federal, state and local government web resources and services.